createdAt,value
2022-10-02T00:00:47.145Z,36.05
2022-10-02T00:10:54.591Z,38.57
2022-10-02T00:21:01.802Z,48.78
2022-10-02T00:31:26.502Z,42.05
2022-10-02T00:41:59.908Z,45.43
2022-10-02T00:52:15.018Z,43.25
2022-10-02T01:12:38.100Z,43.60
2022-10-02T01:22:47.876Z,40.20
2022-10-02T01:32:56.161Z,48.22
2022-10-02T01:43:02.264Z,45.35
2022-10-02T01:53:13.179Z,41.30
2022-10-02T02:03:23.305Z,48.70
2022-10-02T02:13:34.670Z,46.55
2022-10-02T02:23:40.993Z,44.15
2022-10-02T02:33:49.075Z,42.35
2022-10-02T02:43:57.500Z,36.55
2022-10-02T02:54:08.577Z,25.75
2022-10-02T03:04:13.969Z,15.88
2022-10-02T03:14:47.058Z,9.40
2022-10-02T03:24:53.345Z,15.90
2022-10-02T03:34:58.283Z,8.10
2022-10-02T03:55:22.323Z,13.15
2022-10-02T04:05:30.040Z,27.45
2022-10-02T04:15:52.667Z,30.17
2022-10-02T04:26:01.679Z,28.90
2022-10-02T04:36:18.381Z,35.05
2022-10-02T04:46:47.453Z,46.90
2022-10-02T04:57:06.654Z,67.47
2022-10-02T05:07:31.259Z,51.20
2022-10-02T05:17:50.763Z,55.97
2022-10-02T05:28:21.408Z,58.58
2022-10-02T05:38:44.695Z,59.50
2022-10-02T05:48:54.111Z,67.55
2022-10-02T05:59:05.654Z,61.58
2022-10-02T06:09:19.763Z,45.65
2022-10-02T06:19:28.567Z,44.67
2022-10-02T06:29:38.161Z,41.20
2022-10-02T06:40:06.918Z,45.80
2022-10-02T06:50:36.192Z,50.30
2022-10-02T07:00:48.928Z,41.08
2022-10-02T07:11:02.559Z,39.28
2022-10-02T07:21:16.607Z,48.03
2022-10-02T07:31:30.450Z,43.25
2022-10-02T07:41:53.312Z,43.58
2022-10-02T07:52:03.380Z,30.65
2022-10-02T08:02:15.071Z,32.63
2022-10-02T08:12:28.286Z,18.77
2022-10-02T08:22:38.936Z,29.70
2022-10-02T08:32:42.279Z,23.65
2022-10-02T08:43:25.964Z,25.40
2022-10-02T08:54:01.257Z,19.00
2022-10-02T09:04:38.240Z,31.83
2022-10-02T09:14:50.106Z,22.83
2022-10-02T09:25:22.208Z,20.70
2022-10-02T09:36:02.001Z,19.55
2022-10-02T09:46:47.432Z,20.98
2022-10-02T09:57:31.912Z,21.85
2022-10-02T10:07:51.597Z,27.00
2022-10-02T10:18:26.694Z,24.95
2022-10-02T10:29:21.305Z,21.55
2022-10-02T10:39:50.376Z,23.75
2022-10-02T10:50:29.790Z,21.38
2022-10-02T11:00:41.873Z,21.65
2022-10-02T11:11:00.798Z,30.33
2022-10-02T11:21:21.725Z,15.93
2022-10-02T11:31:37.265Z,18.38
2022-10-02T11:42:17.552Z,20.55
2022-10-02T11:52:47.992Z,17.23
2022-10-02T12:03:02.128Z,23.70
2022-10-02T12:13:27.733Z,18.70
2022-10-02T12:23:59.447Z,23.55
2022-10-02T12:34:26.983Z,29.58
2022-10-02T12:44:56.596Z,30.15
2022-10-02T12:55:47.786Z,27.58
2022-10-02T13:06:29.746Z,27.20
2022-10-02T13:16:54.752Z,15.90
2022-10-02T13:27:04.314Z,14.30
2022-10-02T13:37:19.377Z,19.42
2022-10-02T13:47:34.496Z,12.90
2022-10-02T13:57:56.782Z,14.30
2022-10-02T14:08:16.101Z,14.35
2022-10-02T14:18:35.861Z,18.52
2022-10-02T14:28:59.222Z,16.63
2022-10-02T14:39:19.156Z,12.50
2022-10-02T14:49:41.346Z,11.38
2022-10-02T15:00:03.365Z,16.85
2022-10-02T15:10:16.410Z,16.27
2022-10-02T15:20:31.132Z,17.52
2022-10-02T15:30:40.120Z,18.23
2022-10-02T15:40:56.453Z,14.68
2022-10-02T15:51:08.704Z,14.77
2022-10-02T16:01:27.896Z,17.45
2022-10-02T16:11:53.362Z,21.85
2022-10-02T16:22:18.040Z,13.02
2022-10-02T16:32:31.190Z,19.95
2022-10-02T16:42:49.358Z,13.00
2022-10-02T16:52:57.115Z,14.35
2022-10-02T17:03:09.560Z,18.85
2022-10-02T17:13:24.743Z,18.42
2022-10-02T17:23:38.338Z,18.48
2022-10-02T17:33:46.506Z,21.83
2022-10-02T17:44:03.143Z,21.05
2022-10-02T17:54:40.611Z,16.30
2022-10-02T18:05:02.256Z,21.52
2022-10-02T18:15:25.306Z,22.83
2022-10-02T18:25:53.876Z,16.65
2022-10-02T18:36:18.048Z,21.45
2022-10-02T18:46:37.373Z,27.35
2022-10-02T18:56:54.117Z,15.07
2022-10-02T19:07:07.503Z,24.55
2022-10-02T19:17:15.193Z,19.42
2022-10-02T19:27:26.617Z,22.60
2022-10-02T19:37:31.634Z,22.95
2022-10-02T19:47:44.575Z,22.23
2022-10-02T19:57:49.697Z,26.73
2022-10-02T20:17:59.738Z,28.85
2022-10-02T20:28:11.505Z,32.67
2022-10-02T20:38:22.294Z,23.48
2022-10-02T20:49:09.087Z,21.98
2022-10-02T20:59:52.504Z,41.72
2022-10-02T21:10:39.425Z,31.27
2022-10-02T21:21:01.097Z,21.10
2022-10-02T21:31:18.072Z,29.02
2022-10-02T21:41:55.157Z,21.40
2022-10-02T21:52:25.919Z,30.20
2022-10-02T22:02:56.809Z,21.17
2022-10-02T22:13:18.231Z,19.85
2022-10-02T22:23:35.147Z,24.25
2022-10-02T22:33:57.134Z,34.03
2022-10-02T22:44:06.576Z,22.58
2022-10-02T22:54:21.469Z,20.67
2022-10-02T23:04:32.878Z,18.40
2022-10-02T23:14:43.247Z,26.33
2022-10-02T23:24:52.440Z,30.75
2022-10-02T23:35:04.548Z,29.85
2022-10-02T23:45:18.203Z,19.50
2022-10-02T23:55:39.594Z,25.70
